sensor_id;sensor_type;location;lat;lon;timestamp;P1;durP1;ratioP1;P2;durP2;ratioP2
56746;SDS011;42623;49.978;9.966;2023-06-04T00:00:03;2.50;;;1.23;;
56746;SDS011;42623;49.978;9.966;2023-06-04T00:00:13;3.20;;;1.30;;
56746;SDS011;42623;49.978;9.966;2023-06-04T00:00:23;3.53;;;1.55;;
56746;SDS011;42623;49.978;9.966;2023-06-04T00:00:34;3.27;;;1.43;;
56746;SDS011;42623;49.978;9.966;2023-06-04T00:00:44;2.40;;;1.30;;
56746;SDS011;42623;49.978;9.966;2023-06-04T00:00:54;3.70;;;1.20;;
56746;SDS011;42623;49.978;9.966;2023-06-04T00:01:04;3.83;;;1.20;;
56746;SDS011;42623;49.978;9.966;2023-06-04T00:01:15;4.20;;;1.40;;
56746;SDS011;42623;49.978;9.966;2023-06-04T00:01:25;2.63;;;1.23;;
56746;SDS011;42623;49.978;9.966;2023-06-04T00:01:35;2.90;;;1.30;;
56746;SDS011;42623;49.978;9.966;2023-06-04T00:01:45;2.97;;;1.20;;
56746;SDS011;42623;49.978;9.966;2023-06-04T00:01:56;3.57;;;1.37;;
56746;SDS011;42623;49.978;9.966;2023-06-04T00:02:06;2.97;;;1.20;;
56746;SDS011;42623;49.978;9.966;2023-06-04T00:02:16;2.90;;;1.33;;
56746;SDS011;42623;49.978;9.966;2023-06-04T00:02:26;2.37;;;1.37;;
56746;SDS011;42623;49.978;9.966;2023-06-04T00:02:36;3.10;;;1.60;;
56746;SDS011;42623;49.978;9.966;2023-06-04T00:02:46;3.57;;;1.63;;
56746;SDS011;42623;49.978;9.966;2023-06-04T00:02:57;3.30;;;1.48;;
56746;SDS011;42623;49.978;9.966;2023-06-04T00:03:07;2.97;;;1.30;;
56746;SDS011;42623;49.978;9.966;2023-06-04T00:03:17;2.07;;;1.10;;
56746;SDS011;42623;49.978;9.966;2023-06-04T00:03:27;1.97;;;1.10;;
56746;SDS011;42623;49.978;9.966;2023-06-04T00:03:37;1.87;;;1.07;;
56746;SDS011;42623;49.978;9.966;2023-06-04T00:03:47;3.20;;;1.33;;
56746;SDS011;42623;49.978;9.966;2023-06-04T00:03:57;3.80;;;1.50;;
56746;SDS011;42623;49.978;9.966;2023-06-04T00:04:08;4.27;;;1.67;;
56746;SDS011;42623;49.978;9.966;2023-06-04T00:04:18;3.30;;;1.43;;
56746;SDS011;42623;49.978;9.966;2023-06-04T00:04:28;3.37;;;1.50;;
56746;SDS011;42623;49.978;9.966;2023-06-04T00:04:38;3.25;;;1.40;;
56746;SDS011;42623;49.978;9.966;2023-06-04T00:04:48;3.90;;;1.53;;
56746;SDS011;42623;49.978;9.966;2023-06-04T00:04:58;3.77;;;1.50;;
56746;SDS011;42623;49.978;9.966;2023-06-04T00:05:09;4.20;;;1.60;;
56746;SDS011;42623;49.978;9.966;2023-06-04T00:05:19;4.03;;;1.53;;
56746;SDS011;42623;49.978;9.966;2023-06-04T00:05:29;3.77;;;1.40;;
56746;SDS011;42623;49.978;9.966;2023-06-04T00:05:39;3.07;;;1.30;;
56746;SDS011;42623;49.978;9.966;2023-06-04T00:05:49;2.53;;;1.23;;
56746;SDS011;42623;49.978;9.966;2023-06-04T00:06:00;2.53;;;1.30;;
56746;SDS011;42623;49.978;9.966;2023-06-04T00:06:10;2.28;;;1.33;;
56746;SDS011;42623;49.978;9.966;2023-06-04T00:06:20;2.27;;;1.40;;
56746;SDS011;42623;49.978;9.966;2023-06-04T00:06:30;2.17;;;1.50;;
56746;SDS011;42623;49.978;9.966;2023-06-04T00:06:40;2.10;;;1.30;;
56746;SDS011;42623;49.978;9.966;2023-06-04T00:06:50;2.25;;;1.25;;
56746;SDS011;42623;49.978;9.966;2023-06-04T00:07:01;2.20;;;1.20;;
56746;SDS011;42623;49.978;9.966;2023-06-04T00:07:11;3.10;;;1.30;;
56746;SDS011;42623;49.978;9.966;2023-06-04T00:07:21;3.00;;;1.40;;
56746;SDS011;42623;49.978;9.966;2023-06-04T00:07:31;2.97;;;1.40;;
56746;SDS011;42623;49.978;9.966;2023-06-04T00:07:41;3.00;;;1.57;;
56746;SDS011;42623;49.978;9.966;2023-06-04T00:07:52;3.23;;;1.47;;
56746;SDS011;42623;49.978;9.966;2023-06-04T00:08:02;4.15;;;1.48;;
56746;SDS011;42623;49.978;9.966;2023-06-04T00:08:12;3.50;;;1.23;;
56746;SDS011;42623;49.978;9.966;2023-06-04T00:08:22;2.87;;;1.23;;
56746;SDS011;42623;49.978;9.966;2023-06-04T00:08:33;2.30;;;1.23;;
56746;SDS011;42623;49.978;9.966;2023-06-04T00:08:43;1.87;;;1.03;;
56746;SDS011;42623;49.978;9.966;2023-06-04T00:08:53;2.63;;;1.17;;
56746;SDS011;42623;49.978;9.966;2023-06-04T00:09:03;2.93;;;1.30;;
56746;SDS011;42623;49.978;9.966;2023-06-04T00:09:13;3.80;;;1.50;;
56746;SDS011;42623;49.978;9.966;2023-06-04T00:09:23;3.00;;;1.47;;
56746;SDS011;42623;49.978;9.966;2023-06-04T00:09:33;3.17;;;1.43;;
56746;SDS011;42623;49.978;9.966;2023-06-04T00:09:44;2.75;;;1.40;;
56746;SDS011;42623;49.978;9.966;2023-06-04T00:09:56;2.60;;;1.33;;
56746;SDS011;42623;49.978;9.966;2023-06-04T00:10:06;2.50;;;1.30;;
56746;SDS011;42623;49.978;9.966;2023-06-04T00:10:17;2.57;;;1.33;;
56746;SDS011;42623;49.978;9.966;2023-06-04T00:10:27;2.53;;;1.30;;
56746;SDS011;42623;49.978;9.966;2023-06-04T00:10:37;2.60;;;1.40;;
56746;SDS011;42623;49.978;9.966;2023-06-04T00:10:49;2.28;;;1.20;;
56746;SDS011;42623;49.978;9.966;2023-06-04T00:10:59;2.37;;;1.20;;
56746;SDS011;42623;49.978;9.966;2023-06-04T00:11:10;2.70;;;1.30;;
56746;SDS011;42623;49.978;9.966;2023-06-04T00:11:20;3.27;;;1.50;;
56746;SDS011;42623;49.978;9.966;2023-06-04T00:11:30;3.50;;;1.60;;
56746;SDS011;42623;49.978;9.966;2023-06-04T00:11:42;2.65;;;1.42;;
56746;SDS011;42623;49.978;9.966;2023-06-04T00:11:53;2.28;;;1.30;;
56746;SDS011;42623;49.978;9.966;2023-06-04T00:12:03;2.50;;;1.30;;
56746;SDS011;42623;49.978;9.966;2023-06-04T00:12:14;3.05;;;1.20;;
56746;SDS011;42623;49.978;9.966;2023-06-04T00:12:24;3.37;;;1.20;;
56746;SDS011;42623;49.978;9.966;2023-06-04T00:12:35;3.47;;;1.13;;
56746;SDS011;42623;49.978;9.966;2023-06-04T00:12:45;3.22;;;1.33;;
56746;SDS011;42623;49.978;9.966;2023-06-04T00:12:55;3.47;;;1.50;;
56746;SDS011;42623;49.978;9.966;2023-06-04T00:13:06;3.30;;;1.60;;
56746;SDS011;42623;49.978;9.966;2023-06-04T00:13:16;3.63;;;1.60;;
56746;SDS011;42623;49.978;9.966;2023-06-04T00:13:26;3.13;;;1.50;;
56746;SDS011;42623;49.978;9.966;2023-06-04T00:13:36;3.17;;;1.43;;
56746;SDS011;42623;49.978;9.966;2023-06-04T00:13:46;2.73;;;1.40;;
56746;SDS011;42623;49.978;9.966;2023-06-04T00:13:57;2.67;;;1.40;;
56746;SDS011;42623;49.978;9.966;2023-06-04T00:14:07;1.70;;;1.13;;
56746;SDS011;42623;49.978;9.966;2023-06-04T00:14:17;1.70;;;1.13;;
56746;SDS011;42623;49.978;9.966;2023-06-04T00:14:27;1.92;;;1.30;;
56746;SDS011;42623;49.978;9.966;2023-06-04T00:14:38;2.73;;;1.50;;
56746;SDS011;42623;49.978;9.966;2023-06-04T00:14:48;4.57;;;1.50;;
56746;SDS011;42623;49.978;9.966;2023-06-04T00:14:58;4.40;;;1.40;;
56746;SDS011;42623;49.978;9.966;2023-06-04T00:15:08;4.53;;;1.43;;
56746;SDS011;42623;49.978;9.966;2023-06-04T00:15:19;2.90;;;1.47;;
56746;SDS011;42623;49.978;9.966;2023-06-04T00:15:29;3.03;;;1.60;;
56746;SDS011;42623;49.978;9.966;2023-06-04T00:15:39;2.47;;;1.40;;
56746;SDS011;42623;49.978;9.966;2023-06-04T00:15:49;2.23;;;1.40;;
56746;SDS011;42623;49.978;9.966;2023-06-04T00:16:00;2.28;;;1.30;;
56746;SDS011;42623;49.978;9.966;2023-06-04T00:16:10;2.70;;;1.30;;
56746;SDS011;42623;49.978;9.966;2023-06-04T00:16:20;2.60;;;1.33;;
56746;SDS011;42623;49.978;9.966;2023-06-04T00:16:30;2.47;;;1.37;;
56746;SDS011;42623;49.978;9.966;2023-06-04T00:16:40;1.90;;;1.30;;
56746;SDS011;42623;49.978;9.966;2023-06-04T00:16:51;1.98;;;1.25;;
56746;SDS011;42623;49.978;9.966;2023-06-04T00:17:01;3.17;;;1.30;;
56746;SDS011;42623;49.978;9.966;2023-06-04T00:17:11;3.57;;;1.50;;
56746;SDS011;42623;49.978;9.966;2023-06-04T00:17:21;3.63;;;1.40;;
56746;SDS011;42623;49.978;9.966;2023-06-04T00:17:31;2.90;;;1.40;;
56746;SDS011;42623;49.978;9.966;2023-06-04T00:17:41;2.95;;;1.55;;
56746;SDS011;42623;49.978;9.966;2023-06-04T00:17:52;3.63;;;1.83;;
56746;SDS011;42623;49.978;9.966;2023-06-04T00:18:02;3.07;;;1.70;;
56746;SDS011;42623;49.978;9.966;2023-06-04T00:18:12;2.90;;;1.50;;
56746;SDS011;42623;49.978;9.966;2023-06-04T00:18:23;2.92;;;1.52;;
56746;SDS011;42623;49.978;9.966;2023-06-04T00:18:33;3.90;;;1.87;;
56746;SDS011;42623;49.978;9.966;2023-06-04T00:18:44;4.07;;;1.90;;
56746;SDS011;42623;49.978;9.966;2023-06-04T00:18:54;4.13;;;1.80;;
56746;SDS011;42623;49.978;9.966;2023-06-04T00:19:04;3.72;;;1.50;;
56746;SDS011;42623;49.978;9.966;2023-06-04T00:19:14;3.60;;;1.50;;
56746;SDS011;42623;49.978;9.966;2023-06-04T00:19:24;2.80;;;1.40;;
56746;SDS011;42623;49.978;9.966;2023-06-04T00:19:35;2.80;;;1.40;;
56746;SDS011;42623;49.978;9.966;2023-06-04T00:19:45;2.97;;;1.60;;
56746;SDS011;42623;49.978;9.966;2023-06-04T00:19:55;3.47;;;1.83;;
56746;SDS011;42623;49.978;9.966;2023-06-04T00:20:05;3.50;;;1.87;;
56746;SDS011;42623;49.978;9.966;2023-06-04T00:20:16;3.40;;;1.63;;
56746;SDS011;42623;49.978;9.966;2023-06-04T00:20:26;2.83;;;1.43;;
56746;SDS011;42623;49.978;9.966;2023-06-04T00:20:36;2.30;;;1.30;;
56746;SDS011;42623;49.978;9.966;2023-06-04T00:20:47;2.28;;;1.23;;
56746;SDS011;42623;49.978;9.966;2023-06-04T00:20:57;2.08;;;1.15;;
56746;SDS011;42623;49.978;9.966;2023-06-04T00:21:07;2.30;;;1.20;;
56746;SDS011;42623;49.978;9.966;2023-06-04T00:21:18;2.03;;;1.10;;
56746;SDS011;42623;49.978;9.966;2023-06-04T00:21:28;1.97;;;1.20;;
56746;SDS011;42623;49.978;9.966;2023-06-04T00:21:38;2.17;;;1.30;;
56746;SDS011;42623;49.978;9.966;2023-06-04T00:21:48;3.40;;;1.70;;
56746;SDS011;42623;49.978;9.966;2023-06-04T00:21:59;3.75;;;1.75;;
56746;SDS011;42623;49.978;9.966;2023-06-04T00:22:09;3.00;;;1.47;;
56746;SDS011;42623;49.978;9.966;2023-06-04T00:22:20;2.27;;;1.23;;
56746;SDS011;42623;49.978;9.966;2023-06-04T00:22:30;2.13;;;1.20;;
56746;SDS011;42623;49.978;9.966;2023-06-04T00:22:40;2.78;;;1.48;;
56746;SDS011;42623;49.978;9.966;2023-06-04T00:22:51;2.63;;;1.42;;
56746;SDS011;42623;49.978;9.966;2023-06-04T00:23:02;2.70;;;1.40;;
56746;SDS011;42623;49.978;9.966;2023-06-04T00:23:12;2.58;;;1.30;;
56746;SDS011;42623;49.978;9.966;2023-06-04T00:23:22;3.00;;;1.50;;
56746;SDS011;42623;49.978;9.966;2023-06-04T00:23:32;2.63;;;1.47;;
56746;SDS011;42623;49.978;9.966;2023-06-04T00:23:42;3.10;;;1.60;;
56746;SDS011;42623;49.978;9.966;2023-06-04T00:23:52;2.90;;;1.43;;
56746;SDS011;42623;49.978;9.966;2023-06-04T00:24:03;2.92;;;1.48;;
56746;SDS011;42623;49.978;9.966;2023-06-04T00:24:13;2.10;;;1.30;;
56746;SDS011;42623;49.978;9.966;2023-06-04T00:24:23;4.97;;;1.57;;
56746;SDS011;42623;49.978;9.966;2023-06-04T00:24:34;5.13;;;1.60;;
56746;SDS011;42623;49.978;9.966;2023-06-04T00:24:45;5.93;;;1.70;;
56746;SDS011;42623;49.978;9.966;2023-06-04T00:24:55;3.10;;;1.43;;
56746;SDS011;42623;49.978;9.966;2023-06-04T00:25:05;2.40;;;1.13;;
56746;SDS011;42623;49.978;9.966;2023-06-04T00:25:15;1.80;;;0.97;;
56746;SDS011;42623;49.978;9.966;2023-06-04T00:25:25;2.03;;;1.02;;
56746;SDS011;42623;49.978;9.966;2023-06-04T00:25:35;3.37;;;1.47;;
56746;SDS011;42623;49.978;9.966;2023-06-04T00:25:46;3.73;;;1.70;;
56746;SDS011;42623;49.978;9.966;2023-06-04T00:25:56;4.20;;;1.75;;
56746;SDS011;42623;49.978;9.966;2023-06-04T00:26:06;4.10;;;1.70;;
56746;SDS011;42623;49.978;9.966;2023-06-04T00:26:16;3.97;;;1.57;;
56746;SDS011;42623;49.978;9.966;2023-06-04T00:26:27;4.63;;;1.70;;
56746;SDS011;42623;49.978;9.966;2023-06-04T00:26:37;4.78;;;1.85;;
56746;SDS011;42623;49.978;9.966;2023-06-04T00:26:47;4.40;;;1.90;;
56746;SDS011;42623;49.978;9.966;2023-06-04T00:26:57;4.70;;;1.70;;
56746;SDS011;42623;49.978;9.966;2023-06-04T00:27:08;4.82;;;1.50;;
56746;SDS011;42623;49.978;9.966;2023-06-04T00:27:18;5.43;;;1.57;;
56746;SDS011;42623;49.978;9.966;2023-06-04T00:27:28;4.33;;;1.50;;
56746;SDS011;42623;49.978;9.966;2023-06-04T00:27:39;3.67;;;1.43;;
56746;SDS011;42623;49.978;9.966;2023-06-04T00:27:49;2.67;;;1.30;;
56746;SDS011;42623;49.978;9.966;2023-06-04T00:27:59;2.87;;;1.53;;
56746;SDS011;42623;49.978;9.966;2023-06-04T00:28:09;3.08;;;1.67;;
56746;SDS011;42623;49.978;9.966;2023-06-04T00:28:19;2.93;;;1.67;;
56746;SDS011;42623;49.978;9.966;2023-06-04T00:28:30;2.83;;;1.58;;
56746;SDS011;42623;49.978;9.966;2023-06-04T00:28:41;3.13;;;1.57;;
56746;SDS011;42623;49.978;9.966;2023-06-04T00:28:51;3.10;;;1.60;;
56746;SDS011;42623;49.978;9.966;2023-06-04T00:29:01;2.60;;;1.50;;
56746;SDS011;42623;49.978;9.966;2023-06-04T00:29:12;2.45;;;1.45;;
56746;SDS011;42623;49.978;9.966;2023-06-04T00:29:22;3.23;;;1.60;;
56746;SDS011;42623;49.978;9.966;2023-06-04T00:29:32;2.70;;;1.33;;
56746;SDS011;42623;49.978;9.966;2023-06-04T00:29:42;2.50;;;1.27;;
56746;SDS011;42623;49.978;9.966;2023-06-04T00:29:53;2.00;;;1.10;;
56746;SDS011;42623;49.978;9.966;2023-06-04T00:30:03;2.80;;;1.30;;
56746;SDS011;42623;49.978;9.966;2023-06-04T00:30:13;2.60;;;1.30;;
56746;SDS011;42623;49.978;9.966;2023-06-04T00:30:24;3.15;;;1.40;;
56746;SDS011;42623;49.978;9.966;2023-06-04T00:30:34;3.53;;;1.40;;
56746;SDS011;42623;49.978;9.966;2023-06-04T00:30:44;3.70;;;1.53;;
56746;SDS011;42623;49.978;9.966;2023-06-04T00:30:55;3.33;;;1.50;;
56746;SDS011;42623;49.978;9.966;2023-06-04T00:31:05;3.50;;;1.50;;
56746;SDS011;42623;49.978;9.966;2023-06-04T00:31:16;4.30;;;1.52;;
56746;SDS011;42623;49.978;9.966;2023-06-04T00:31:26;4.47;;;1.60;;
56746;SDS011;42623;49.978;9.966;2023-06-04T00:31:36;3.70;;;1.47;;
56746;SDS011;42623;49.978;9.966;2023-06-04T00:31:46;3.07;;;1.40;;
56746;SDS011;42623;49.978;9.966;2023-06-04T00:31:56;3.58;;;1.40;;
56746;SDS011;42623;49.978;9.966;2023-06-04T00:32:07;3.33;;;1.37;;
56746;SDS011;42623;49.978;9.966;2023-06-04T00:32:17;3.23;;;1.37;;
56746;SDS011;42623;49.978;9.966;2023-06-04T00:32:27;2.40;;;1.30;;
56746;SDS011;42623;49.978;9.966;2023-06-04T00:32:37;2.60;;;1.30;;
56746;SDS011;42623;49.978;9.966;2023-06-04T00:32:47;2.87;;;1.40;;
56746;SDS011;42623;49.978;9.966;2023-06-04T00:32:58;3.67;;;1.60;;
56746;SDS011;42623;49.978;9.966;2023-06-04T00:33:08;3.60;;;1.52;;
56746;SDS011;42623;49.978;9.966;2023-06-04T00:33:18;3.57;;;1.60;;
56746;SDS011;42623;49.978;9.966;2023-06-04T00:33:28;3.30;;;1.60;;
56746;SDS011;42623;49.978;9.966;2023-06-04T00:33:39;3.63;;;1.77;;
56746;SDS011;42623;49.978;9.966;2023-06-04T00:33:49;3.47;;;1.60;;
56746;SDS011;42623;49.978;9.966;2023-06-04T00:33:59;4.10;;;1.60;;
56746;SDS011;42623;49.978;9.966;2023-06-04T00:34:10;3.87;;;1.40;;
56746;SDS011;42623;49.978;9.966;2023-06-04T00:34:20;4.10;;;1.50;;
56746;SDS011;42623;49.978;9.966;2023-06-04T00:34:30;2.92;;;1.40;;
56746;SDS011;42623;49.978;9.966;2023-06-04T00:34:41;3.00;;;1.43;;
56746;SDS011;42623;49.978;9.966;2023-06-04T00:34:51;2.13;;;1.20;;
56746;SDS011;42623;49.978;9.966;2023-06-04T00:35:02;1.90;;;1.20;;
56746;SDS011;42623;49.978;9.966;2023-06-04T00:35:12;2.43;;;1.30;;
56746;SDS011;42623;49.978;9.966;2023-06-04T00:35:22;2.65;;;1.40;;
56746;SDS011;42623;49.978;9.966;2023-06-04T00:35:32;2.77;;;1.40;;
56746;SDS011;42623;49.978;9.966;2023-06-04T00:35:43;2.73;;;1.40;;
56746;SDS011;42623;49.978;9.966;2023-06-04T00:35:53;2.50;;;1.23;;
56746;SDS011;42623;49.978;9.966;2023-06-04T00:36:03;3.65;;;1.25;;
56746;SDS011;42623;49.978;9.966;2023-06-04T00:36:13;3.80;;;1.27;;
56746;SDS011;42623;49.978;9.966;2023-06-04T00:36:23;3.33;;;1.27;;
56746;SDS011;42623;49.978;9.966;2023-06-04T00:36:34;2.47;;;1.23;;
56746;SDS011;42623;49.978;9.966;2023-06-04T00:36:44;2.50;;;1.15;;
56746;SDS011;42623;49.978;9.966;2023-06-04T00:36:54;3.10;;;1.30;;
56746;SDS011;42623;49.978;9.966;2023-06-04T00:37:04;2.93;;;1.40;;
56746;SDS011;42623;49.978;9.966;2023-06-04T00:37:14;2.67;;;1.47;;
56746;SDS011;42623;49.978;9.966;2023-06-04T00:37:25;2.40;;;1.30;;
56746;SDS011;42623;49.978;9.966;2023-06-04T00:37:35;2.83;;;1.30;;
56746;SDS011;42623;49.978;9.966;2023-06-04T00:37:45;2.57;;;1.30;;
56746;SDS011;42623;49.978;9.966;2023-06-04T00:37:55;2.30;;;1.20;;
56746;SDS011;42623;49.978;9.966;2023-06-04T00:38:05;1.95;;;1.20;;
56746;SDS011;42623;49.978;9.966;2023-06-04T00:38:16;2.40;;;1.40;;
56746;SDS011;42623;49.978;9.966;2023-06-04T00:38:26;2.60;;;1.50;;
56746;SDS011;42623;49.978;9.966;2023-06-04T00:38:37;2.72;;;1.52;;
56746;SDS011;42623;49.978;9.966;2023-06-04T00:38:47;3.17;;;1.60;;
56746;SDS011;42623;49.978;9.966;2023-06-04T00:38:57;3.60;;;1.60;;
56746;SDS011;42623;49.978;9.966;2023-06-04T00:39:07;3.53;;;1.57;;
56746;SDS011;42623;49.978;9.966;2023-06-04T00:39:17;3.23;;;1.40;;
56746;SDS011;42623;49.978;9.966;2023-06-04T00:39:27;3.70;;;1.50;;
56746;SDS011;42623;49.978;9.966;2023-06-04T00:39:39;3.70;;;1.40;;
56746;SDS011;42623;49.978;9.966;2023-06-04T00:39:49;3.47;;;1.40;;
56746;SDS011;42623;49.978;9.966;2023-06-04T00:39:59;2.65;;;1.25;;
56746;SDS011;42623;49.978;9.966;2023-06-04T00:40:10;3.60;;;1.48;;
56746;SDS011;42623;49.978;9.966;2023-06-04T00:40:20;3.07;;;1.30;;
56746;SDS011;42623;49.978;9.966;2023-06-04T00:40:31;3.28;;;1.48;;
56746;SDS011;42623;49.978;9.966;2023-06-04T00:40:41;2.83;;;1.40;;
56746;SDS011;42623;49.978;9.966;2023-06-04T00:40:51;3.13;;;1.47;;
56746;SDS011;42623;49.978;9.966;2023-06-04T00:41:01;3.50;;;1.30;;
56746;SDS011;42623;49.978;9.966;2023-06-04T00:41:11;3.20;;;1.27;;
56746;SDS011;42623;49.978;9.966;2023-06-04T00:41:22;3.15;;;1.48;;
56746;SDS011;42623;49.978;9.966;2023-06-04T00:41:32;2.67;;;1.50;;
56746;SDS011;42623;49.978;9.966;2023-06-04T00:41:42;2.73;;;1.53;;
56746;SDS011;42623;49.978;9.966;2023-06-04T00:41:52;2.23;;;1.40;;
56746;SDS011;42623;49.978;9.966;2023-06-04T00:42:02;2.45;;;1.40;;
56746;SDS011;42623;49.978;9.966;2023-06-04T00:42:13;2.43;;;1.37;;
56746;SDS011;42623;49.978;9.966;2023-06-04T00:42:23;2.80;;;1.40;;
56746;SDS011;42623;49.978;9.966;2023-06-04T00:42:33;3.45;;;1.48;;
56746;SDS011;42623;49.978;9.966;2023-06-04T00:42:43;3.80;;;1.63;;
56746;SDS011;42623;49.978;9.966;2023-06-04T00:42:54;4.05;;;1.73;;
56746;SDS011;42623;49.978;9.966;2023-06-04T00:43:05;3.88;;;1.67;;
56746;SDS011;42623;49.978;9.966;2023-06-04T00:43:15;4.33;;;1.67;;
56746;SDS011;42623;49.978;9.966;2023-06-04T00:43:25;4.13;;;1.60;;
56746;SDS011;42623;49.978;9.966;2023-06-04T00:43:36;3.88;;;1.60;;
56746;SDS011;42623;49.978;9.966;2023-06-04T00:43:47;4.67;;;1.60;;
56746;SDS011;42623;49.978;9.966;2023-06-04T00:44:05;4.28;;;1.40;;
56746;SDS011;42623;49.978;9.966;2023-06-04T00:44:16;2.47;;;1.33;;
56746;SDS011;42623;49.978;9.966;2023-06-04T00:44:26;2.83;;;1.43;;
56746;SDS011;42623;49.978;9.966;2023-06-04T00:44:37;3.72;;;1.60;;
56746;SDS011;42623;49.978;9.966;2023-06-04T00:44:47;4.17;;;1.60;;
56746;SDS011;42623;49.978;9.966;2023-06-04T00:44:57;3.93;;;1.60;;
56746;SDS011;42623;49.978;9.966;2023-06-04T00:45:08;3.13;;;1.50;;
56746;SDS011;42623;49.978;9.966;2023-06-04T00:45:19;2.58;;;1.35;;
56746;SDS011;42623;49.978;9.966;2023-06-04T00:45:30;2.80;;;1.45;;
56746;SDS011;42623;49.978;9.966;2023-06-04T00:45:41;2.53;;;1.30;;
56746;SDS011;42623;49.978;9.966;2023-06-04T00:45:55;2.22;;;1.27;;
56746;SDS011;42623;49.978;9.966;2023-06-04T00:46:05;2.10;;;1.17;;
56746;SDS011;42623;49.978;9.966;2023-06-04T00:46:16;2.88;;;1.38;;
56746;SDS011;42623;49.978;9.966;2023-06-04T00:46:28;3.25;;;1.42;;
56746;SDS011;42623;49.978;9.966;2023-06-04T00:46:38;3.53;;;1.63;;
56746;SDS011;42623;49.978;9.966;2023-06-04T00:46:48;4.63;;;2.07;;
56746;SDS011;42623;49.978;9.966;2023-06-04T00:46:59;4.40;;;2.03;;
56746;SDS011;42623;49.978;9.966;2023-06-04T00:47:13;3.00;;;1.53;;
56746;SDS011;42623;49.978;9.966;2023-06-04T00:47:23;2.05;;;1.15;;
56746;SDS011;42623;49.978;9.966;2023-06-04T00:47:33;2.60;;;1.30;;
56746;SDS011;42623;49.978;9.966;2023-06-04T00:47:44;2.63;;;1.20;;
56746;SDS011;42623;49.978;9.966;2023-06-04T00:47:55;2.33;;;1.20;;
56746;SDS011;42623;49.978;9.966;2023-06-04T00:48:06;2.57;;;1.43;;
56746;SDS011;42623;49.978;9.966;2023-06-04T00:48:16;2.85;;;1.60;;
56746;SDS011;42623;49.978;9.966;2023-06-04T00:48:26;3.00;;;1.60;;
56746;SDS011;42623;49.978;9.966;2023-06-04T00:48:37;2.42;;;1.35;;
56746;SDS011;42623;49.978;9.966;2023-06-04T00:48:48;3.45;;;1.52;;
56746;SDS011;42623;49.978;9.966;2023-06-04T00:48:58;3.37;;;1.50;;
56746;SDS011;42623;49.978;9.966;2023-06-04T00:49:08;3.60;;;1.50;;
56746;SDS011;42623;49.978;9.966;2023-06-04T00:49:19;2.87;;;1.50;;
56746;SDS011;42623;49.978;9.966;2023-06-04T00:49:29;3.17;;;1.60;;
56746;SDS011;42623;49.978;9.966;2023-06-04T00:49:39;3.10;;;1.60;;
56746;SDS011;42623;49.978;9.966;2023-06-04T00:49:53;2.92;;;1.40;;
56746;SDS011;42623;49.978;9.966;2023-06-04T00:50:03;2.45;;;1.40;;
56746;SDS011;42623;49.978;9.966;2023-06-04T00:50:13;2.63;;;1.40;;
56746;SDS011;42623;49.978;9.966;2023-06-04T00:50:24;2.47;;;1.33;;
56746;SDS011;42623;49.978;9.966;2023-06-04T00:50:34;2.77;;;1.30;;
56746;SDS011;42623;49.978;9.966;2023-06-04T00:50:46;2.42;;;1.30;;
56746;SDS011;42623;49.978;9.966;2023-06-04T00:50:57;2.95;;;1.30;;
56746;SDS011;42623;49.978;9.966;2023-06-04T00:51:07;2.83;;;1.35;;
56746;SDS011;42623;49.978;9.966;2023-06-04T00:51:18;3.00;;;1.40;;
56746;SDS011;42623;49.978;9.966;2023-06-04T00:51:29;3.38;;;1.67;;
56746;SDS011;42623;49.978;9.966;2023-06-04T00:51:40;3.53;;;1.67;;
56746;SDS011;42623;49.978;9.966;2023-06-04T00:51:50;3.30;;;1.53;;
56746;SDS011;42623;49.978;9.966;2023-06-04T00:52:00;3.13;;;1.53;;
56746;SDS011;42623;49.978;9.966;2023-06-04T00:52:12;2.95;;;1.60;;
56746;SDS011;42623;49.978;9.966;2023-06-04T00:52:23;3.03;;;1.63;;
56746;SDS011;42623;49.978;9.966;2023-06-04T00:52:34;3.00;;;1.50;;
56746;SDS011;42623;49.978;9.966;2023-06-04T00:52:45;3.30;;;1.60;;
56746;SDS011;42623;49.978;9.966;2023-06-04T00:52:55;3.10;;;1.50;;
56746;SDS011;42623;49.978;9.966;2023-06-04T00:53:07;2.58;;;1.40;;
56746;SDS011;42623;49.978;9.966;2023-06-04T00:53:18;2.38;;;1.30;;
56746;SDS011;42623;49.978;9.966;2023-06-04T00:53:29;2.75;;;1.30;;
56746;SDS011;42623;49.978;9.966;2023-06-04T00:53:39;2.90;;;1.23;;
56746;SDS011;42623;49.978;9.966;2023-06-04T00:53:49;3.10;;;1.33;;
56746;SDS011;42623;49.978;9.966;2023-06-04T00:54:00;3.13;;;1.40;;
56746;SDS011;42623;49.978;9.966;2023-06-04T00:54:12;3.30;;;1.60;;
56746;SDS011;42623;49.978;9.966;2023-06-04T00:54:22;3.40;;;1.80;;
56746;SDS011;42623;49.978;9.966;2023-06-04T00:54:34;3.65;;;1.83;;
56746;SDS011;42623;49.978;9.966;2023-06-04T00:54:44;3.40;;;1.70;;
56746;SDS011;42623;49.978;9.966;2023-06-04T00:54:54;3.17;;;1.60;;
56746;SDS011;42623;49.978;9.966;2023-06-04T00:55:05;3.38;;;1.63;;
56746;SDS011;42623;49.978;9.966;2023-06-04T00:55:15;2.97;;;1.47;;
56746;SDS011;42623;49.978;9.966;2023-06-04T00:55:27;2.53;;;1.27;;
56746;SDS011;42623;49.978;9.966;2023-06-04T00:55:38;2.57;;;1.23;;
56746;SDS011;42623;49.978;9.966;2023-06-04T00:55:48;3.10;;;1.50;;
56746;SDS011;42623;49.978;9.966;2023-06-04T00:55:58;4.57;;;1.77;;
56746;SDS011;42623;49.978;9.966;2023-06-04T00:56:08;4.60;;;1.77;;
56746;SDS011;42623;49.978;9.966;2023-06-04T00:56:19;4.73;;;1.63;;
56746;SDS011;42623;49.978;9.966;2023-06-04T00:56:29;3.80;;;1.47;;
56746;SDS011;42623;49.978;9.966;2023-06-04T00:56:39;3.55;;;1.33;;
56746;SDS011;42623;49.978;9.966;2023-06-04T00:56:50;2.70;;;1.43;;
56746;SDS011;42623;49.978;9.966;2023-06-04T00:57:00;3.10;;;1.67;;
56746;SDS011;42623;49.978;9.966;2023-06-04T00:57:10;3.37;;;1.83;;
56746;SDS011;42623;49.978;9.966;2023-06-04T00:57:23;3.20;;;1.70;;
56746;SDS011;42623;49.978;9.966;2023-06-04T00:57:33;2.72;;;1.52;;
56746;SDS011;42623;49.978;9.966;2023-06-04T00:57:44;2.63;;;1.50;;
56746;SDS011;42623;49.978;9.966;2023-06-04T00:57:54;2.17;;;1.35;;
56746;SDS011;42623;49.978;9.966;2023-06-04T00:58:04;2.20;;;1.20;;
56746;SDS011;42623;49.978;9.966;2023-06-04T00:58:14;2.43;;;1.30;;
56746;SDS011;42623;49.978;9.966;2023-06-04T00:58:25;3.67;;;1.50;;
56746;SDS011;42623;49.978;9.966;2023-06-04T00:58:38;3.77;;;1.60;;
56746;SDS011;42623;49.978;9.966;2023-06-04T00:58:52;3.53;;;1.50;;
56746;SDS011;42623;49.978;9.966;2023-06-04T00:59:07;3.70;;;1.58;;
56746;SDS011;42623;49.978;9.966;2023-06-04T00:59:17;3.00;;;1.40;;
56746;SDS011;42623;49.978;9.966;2023-06-04T00:59:28;2.75;;;1.27;;
56746;SDS011;42623;49.978;9.966;2023-06-04T00:59:39;2.40;;;1.27;;
56746;SDS011;42623;49.978;9.966;2023-06-04T00:59:51;2.38;;;1.25;;
56746;SDS011;42623;49.978;9.966;2023-06-04T01:00:01;2.47;;;1.42;;
56746;SDS011;42623;49.978;9.966;2023-06-04T01:00:12;2.60;;;1.47;;
56746;SDS011;42623;49.978;9.966;2023-06-04T01:00:22;3.28;;;1.60;;
56746;SDS011;42623;49.978;9.966;2023-06-04T01:00:33;3.57;;;1.67;;
56746;SDS011;42623;49.978;9.966;2023-06-04T01:00:43;4.88;;;1.83;;
56746;SDS011;42623;49.978;9.966;2023-06-04T01:00:54;4.75;;;1.83;;
56746;SDS011;42623;49.978;9.966;2023-06-04T01:01:07;3.60;;;1.60;;
56746;SDS011;42623;49.978;9.966;2023-06-04T01:01:26;3.22;;;1.50;;
56746;SDS011;42623;49.978;9.966;2023-06-04T01:01:45;3.30;;;1.50;;
56746;SDS011;42623;49.978;9.966;2023-06-04T01:02:00;3.63;;;1.52;;
56746;SDS011;42623;49.978;9.966;2023-06-04T01:02:18;3.22;;;1.40;;
56746;SDS011;42623;49.978;9.966;2023-06-04T01:02:32;2.60;;;1.30;;
56746;SDS011;42623;49.978;9.966;2023-06-04T01:02:43;2.88;;;1.48;;
56746;SDS011;42623;49.978;9.966;2023-06-04T01:03:01;2.63;;;1.42;;
56746;SDS011;42623;49.978;9.966;2023-06-04T01:03:17;2.55;;;1.38;;
56746;SDS011;42623;49.978;9.966;2023-06-04T01:03:28;3.20;;;1.52;;
56746;SDS011;42623;49.978;9.966;2023-06-04T01:03:42;2.92;;;1.50;;
56746;SDS011;42623;49.978;9.966;2023-06-04T01:03:53;2.95;;;1.42;;